sensor_id;sensor_type;location;lat;lon;timestamp;P1;durP1;ratioP1;P2;durP2;ratioP2
4450;SDS011;2238;50.180;9.230;2023-02-19T00:02:37;11.13;;;9.23;;
4450;SDS011;2238;50.180;9.230;2023-02-19T00:05:38;12.87;;;10.50;;
4450;SDS011;2238;50.180;9.230;2023-02-19T00:08:38;9.83;;;8.47;;
4450;SDS011;2238;50.180;9.230;2023-02-19T00:11:39;10.27;;;9.20;;
4450;SDS011;2238;50.180;9.230;2023-02-19T00:14:40;11.20;;;10.00;;
4450;SDS011;2238;50.180;9.230;2023-02-19T00:17:41;13.30;;;10.10;;
4450;SDS011;2238;50.180;9.230;2023-02-19T00:20:41;9.77;;;8.77;;
4450;SDS011;2238;50.180;9.230;2023-02-19T00:23:42;11.10;;;9.87;;
4450;SDS011;2238;50.180;9.230;2023-02-19T00:26:43;11.23;;;9.70;;
4450;SDS011;2238;50.180;9.230;2023-02-19T00:29:45;9.03;;;8.10;;
4450;SDS011;2238;50.180;9.230;2023-02-19T00:32:48;14.00;;;11.90;;
4450;SDS011;2238;50.180;9.230;2023-02-19T00:35:50;11.57;;;9.50;;
4450;SDS011;2238;50.180;9.230;2023-02-19T00:38:51;11.13;;;9.40;;
4450;SDS011;2238;50.180;9.230;2023-02-19T00:41:51;13.03;;;10.30;;
4450;SDS011;2238;50.180;9.230;2023-02-19T00:44:52;13.33;;;10.53;;
4450;SDS011;2238;50.180;9.230;2023-02-19T00:47:53;10.60;;;9.60;;
4450;SDS011;2238;50.180;9.230;2023-02-19T00:50:53;12.30;;;9.60;;
4450;SDS011;2238;50.180;9.230;2023-02-19T00:53:55;11.00;;;9.90;;
4450;SDS011;2238;50.180;9.230;2023-02-19T00:56:56;11.80;;;10.00;;
4450;SDS011;2238;50.180;9.230;2023-02-19T00:59:57;11.43;;;10.13;;
4450;SDS011;2238;50.180;9.230;2023-02-19T01:02:57;11.83;;;10.10;;
4450;SDS011;2238;50.180;9.230;2023-02-19T01:05:58;11.30;;;9.80;;
4450;SDS011;2238;50.180;9.230;2023-02-19T01:08:59;10.53;;;9.43;;
4450;SDS011;2238;50.180;9.230;2023-02-19T01:12:00;12.90;;;10.33;;
4450;SDS011;2238;50.180;9.230;2023-02-19T01:15:00;11.17;;;9.97;;
4450;SDS011;2238;50.180;9.230;2023-02-19T01:18:01;11.70;;;10.50;;
4450;SDS011;2238;50.180;9.230;2023-02-19T01:21:06;11.70;;;9.90;;
4450;SDS011;2238;50.180;9.230;2023-02-19T01:24:08;11.70;;;9.67;;
4450;SDS011;2238;50.180;9.230;2023-02-19T01:27:08;10.70;;;9.70;;
4450;SDS011;2238;50.180;9.230;2023-02-19T01:30:09;11.93;;;9.60;;
4450;SDS011;2238;50.180;9.230;2023-02-19T01:33:10;10.57;;;8.77;;
4450;SDS011;2238;50.180;9.230;2023-02-19T01:36:10;12.10;;;9.63;;
4450;SDS011;2238;50.180;9.230;2023-02-19T01:39:11;10.83;;;9.23;;
4450;SDS011;2238;50.180;9.230;2023-02-19T01:42:15;10.67;;;9.50;;
4450;SDS011;2238;50.180;9.230;2023-02-19T01:45:29;10.33;;;9.03;;
4450;SDS011;2238;50.180;9.230;2023-02-19T01:48:32;9.30;;;8.37;;
4450;SDS011;2238;50.180;9.230;2023-02-19T01:51:37;12.23;;;10.87;;
4450;SDS011;2238;50.180;9.230;2023-02-19T01:54:42;10.67;;;9.17;;
4450;SDS011;2238;50.180;9.230;2023-02-19T01:57:45;12.80;;;8.83;;
4450;SDS011;2238;50.180;9.230;2023-02-19T02:00:50;10.77;;;9.67;;
4450;SDS011;2238;50.180;9.230;2023-02-19T02:03:51;10.80;;;9.30;;
4450;SDS011;2238;50.180;9.230;2023-02-19T02:06:53;11.60;;;9.80;;
4450;SDS011;2238;50.180;9.230;2023-02-19T02:09:55;10.63;;;9.37;;
4450;SDS011;2238;50.180;9.230;2023-02-19T02:13:14;12.27;;;9.83;;
4450;SDS011;2238;50.180;9.230;2023-02-19T02:19:27;10.27;;;9.20;;
4450;SDS011;2238;50.180;9.230;2023-02-19T02:22:37;12.80;;;10.17;;
4450;SDS011;2238;50.180;9.230;2023-02-19T02:32:23;12.23;;;10.90;;
4450;SDS011;2238;50.180;9.230;2023-02-19T02:35:28;10.83;;;8.73;;
4450;SDS011;2238;50.180;9.230;2023-02-19T02:38:34;12.33;;;9.13;;
4450;SDS011;2238;50.180;9.230;2023-02-19T02:41:41;11.97;;;9.50;;
4450;SDS011;2238;50.180;9.230;2023-02-19T02:44:44;11.40;;;9.37;;
4450;SDS011;2238;50.180;9.230;2023-02-19T02:48:23;11.73;;;8.90;;
4450;SDS011;2238;50.180;9.230;2023-02-19T02:51:37;12.07;;;10.40;;
4450;SDS011;2238;50.180;9.230;2023-02-19T02:54:43;11.93;;;10.10;;
4450;SDS011;2238;50.180;9.230;2023-02-19T02:58:02;12.67;;;9.50;;
4450;SDS011;2238;50.180;9.230;2023-02-19T03:01:05;10.70;;;9.43;;
4450;SDS011;2238;50.180;9.230;2023-02-19T03:04:30;11.37;;;9.47;;
4450;SDS011;2238;50.180;9.230;2023-02-19T03:07:43;11.70;;;9.40;;
4450;SDS011;2238;50.180;9.230;2023-02-19T03:10:58;12.03;;;9.27;;
4450;SDS011;2238;50.180;9.230;2023-02-19T03:14:29;12.63;;;9.10;;
4450;SDS011;2238;50.180;9.230;2023-02-19T03:18:00;13.10;;;10.43;;
4450;SDS011;2238;50.180;9.230;2023-02-19T03:21:21;10.53;;;9.10;;
4450;SDS011;2238;50.180;9.230;2023-02-19T03:24:26;10.90;;;9.43;;
4450;SDS011;2238;50.180;9.230;2023-02-19T03:27:49;11.27;;;10.17;;
4450;SDS011;2238;50.180;9.230;2023-02-19T03:30:51;10.97;;;9.30;;
4450;SDS011;2238;50.180;9.230;2023-02-19T03:33:55;13.70;;;9.30;;
4450;SDS011;2238;50.180;9.230;2023-02-19T03:40:33;10.63;;;8.50;;
4450;SDS011;2238;50.180;9.230;2023-02-19T03:50:24;10.37;;;8.63;;
4450;SDS011;2238;50.180;9.230;2023-02-19T03:53:31;12.03;;;8.60;;
4450;SDS011;2238;50.180;9.230;2023-02-19T03:57:05;9.43;;;8.10;;
4450;SDS011;2238;50.180;9.230;2023-02-19T04:00:17;11.10;;;8.90;;
4450;SDS011;2238;50.180;9.230;2023-02-19T04:03:26;10.20;;;9.07;;
4450;SDS011;2238;50.180;9.230;2023-02-19T04:06:32;12.40;;;10.10;;
4450;SDS011;2238;50.180;9.230;2023-02-19T04:09:36;11.10;;;9.17;;
4450;SDS011;2238;50.180;9.230;2023-02-19T04:12:40;12.03;;;8.50;;
4450;SDS011;2238;50.180;9.230;2023-02-19T04:15:44;13.33;;;10.33;;
4450;SDS011;2238;50.180;9.230;2023-02-19T04:18:49;14.17;;;9.13;;
4450;SDS011;2238;50.180;9.230;2023-02-19T04:21:53;12.47;;;9.30;;
4450;SDS011;2238;50.180;9.230;2023-02-19T04:24:56;11.63;;;9.30;;
4450;SDS011;2238;50.180;9.230;2023-02-19T04:27:56;10.93;;;8.10;;
4450;SDS011;2238;50.180;9.230;2023-02-19T04:30:58;11.73;;;8.97;;
4450;SDS011;2238;50.180;9.230;2023-02-19T04:33:58;9.30;;;8.03;;
4450;SDS011;2238;50.180;9.230;2023-02-19T04:36:59;9.30;;;8.37;;
4450;SDS011;2238;50.180;9.230;2023-02-19T04:39:59;9.53;;;8.03;;
4450;SDS011;2238;50.180;9.230;2023-02-19T04:43:00;10.13;;;7.27;;
4450;SDS011;2238;50.180;9.230;2023-02-19T04:46:01;8.47;;;7.33;;
4450;SDS011;2238;50.180;9.230;2023-02-19T04:49:02;8.93;;;7.63;;
4450;SDS011;2238;50.180;9.230;2023-02-19T04:52:02;9.80;;;7.47;;
4450;SDS011;2238;50.180;9.230;2023-02-19T04:55:03;10.17;;;8.10;;
4450;SDS011;2238;50.180;9.230;2023-02-19T04:58:04;8.77;;;7.70;;
4450;SDS011;2238;50.180;9.230;2023-02-19T05:01:05;8.00;;;7.10;;
4450;SDS011;2238;50.180;9.230;2023-02-19T05:04:06;10.10;;;7.70;;
4450;SDS011;2238;50.180;9.230;2023-02-19T05:07:07;7.53;;;6.63;;
4450;SDS011;2238;50.180;9.230;2023-02-19T05:10:07;9.33;;;7.47;;
4450;SDS011;2238;50.180;9.230;2023-02-19T05:13:08;10.33;;;8.33;;
4450;SDS011;2238;50.180;9.230;2023-02-19T05:16:10;8.87;;;7.20;;
4450;SDS011;2238;50.180;9.230;2023-02-19T05:19:14;7.33;;;6.50;;
4450;SDS011;2238;50.180;9.230;2023-02-19T05:22:15;9.53;;;6.83;;
4450;SDS011;2238;50.180;9.230;2023-02-19T05:25:16;7.30;;;6.40;;
4450;SDS011;2238;50.180;9.230;2023-02-19T05:28:16;7.73;;;6.47;;
4450;SDS011;2238;50.180;9.230;2023-02-19T05:31:17;8.50;;;7.10;;
4450;SDS011;2238;50.180;9.230;2023-02-19T05:34:18;9.23;;;7.17;;
4450;SDS011;2238;50.180;9.230;2023-02-19T05:37:19;7.20;;;5.90;;
4450;SDS011;2238;50.180;9.230;2023-02-19T05:40:20;7.40;;;6.40;;
4450;SDS011;2238;50.180;9.230;2023-02-19T05:43:20;7.40;;;6.70;;
4450;SDS011;2238;50.180;9.230;2023-02-19T05:46:22;6.53;;;5.93;;
4450;SDS011;2238;50.180;9.230;2023-02-19T05:49:24;5.97;;;5.37;;
4450;SDS011;2238;50.180;9.230;2023-02-19T05:52:24;6.33;;;5.23;;
4450;SDS011;2238;50.180;9.230;2023-02-19T05:55:25;6.23;;;5.60;;
4450;SDS011;2238;50.180;9.230;2023-02-19T05:58:26;6.70;;;5.93;;
4450;SDS011;2238;50.180;9.230;2023-02-19T06:01:27;5.87;;;5.27;;
4450;SDS011;2238;50.180;9.230;2023-02-19T06:04:28;5.47;;;4.97;;
4450;SDS011;2238;50.180;9.230;2023-02-19T06:07:29;6.17;;;5.57;;
4450;SDS011;2238;50.180;9.230;2023-02-19T06:10:30;5.97;;;5.37;;
4450;SDS011;2238;50.180;9.230;2023-02-19T06:13:31;5.53;;;5.03;;
4450;SDS011;2238;50.180;9.230;2023-02-19T06:16:31;5.03;;;4.30;;
4450;SDS011;2238;50.180;9.230;2023-02-19T06:19:33;6.70;;;4.80;;
4450;SDS011;2238;50.180;9.230;2023-02-19T06:22:33;5.40;;;4.90;;
4450;SDS011;2238;50.180;9.230;2023-02-19T06:25:34;4.63;;;4.23;;
4450;SDS011;2238;50.180;9.230;2023-02-19T06:28:35;3.93;;;3.57;;
4450;SDS011;2238;50.180;9.230;2023-02-19T06:31:36;3.63;;;3.33;;
4450;SDS011;2238;50.180;9.230;2023-02-19T06:34:36;3.87;;;2.80;;
4450;SDS011;2238;50.180;9.230;2023-02-19T06:37:37;2.73;;;2.53;;
4450;SDS011;2238;50.180;9.230;2023-02-19T06:40:37;3.57;;;2.90;;
4450;SDS011;2238;50.180;9.230;2023-02-19T06:43:38;2.80;;;2.60;;
4450;SDS011;2238;50.180;9.230;2023-02-19T06:46:39;3.03;;;2.83;;
4450;SDS011;2238;50.180;9.230;2023-02-19T06:49:39;3.00;;;2.70;;
4450;SDS011;2238;50.180;9.230;2023-02-19T06:52:40;10.23;;;3.70;;
4450;SDS011;2238;50.180;9.230;2023-02-19T06:55:40;3.93;;;3.33;;
4450;SDS011;2238;50.180;9.230;2023-02-19T06:58:41;3.20;;;3.00;;
4450;SDS011;2238;50.180;9.230;2023-02-19T07:01:42;3.97;;;3.67;;
4450;SDS011;2238;50.180;9.230;2023-02-19T07:04:43;5.23;;;4.30;;
4450;SDS011;2238;50.180;9.230;2023-02-19T07:07:44;4.37;;;3.93;;
4450;SDS011;2238;50.180;9.230;2023-02-19T07:10:45;3.73;;;3.43;;
4450;SDS011;2238;50.180;9.230;2023-02-19T07:13:54;3.80;;;3.30;;
4450;SDS011;2238;50.180;9.230;2023-02-19T07:16:59;6.70;;;6.10;;
4450;SDS011;2238;50.180;9.230;2023-02-19T07:19:59;3.40;;;3.00;;
4450;SDS011;2238;50.180;9.230;2023-02-19T07:23:00;4.70;;;3.00;;
4450;SDS011;2238;50.180;9.230;2023-02-19T07:26:00;3.80;;;3.40;;
4450;SDS011;2238;50.180;9.230;2023-02-19T07:29:01;3.63;;;3.33;;
4450;SDS011;2238;50.180;9.230;2023-02-19T07:32:02;5.50;;;3.00;;
4450;SDS011;2238;50.180;9.230;2023-02-19T07:35:03;3.50;;;3.20;;
4450;SDS011;2238;50.180;9.230;2023-02-19T07:38:04;3.13;;;2.87;;
4450;SDS011;2238;50.180;9.230;2023-02-19T07:41:05;2.83;;;2.63;;
4450;SDS011;2238;50.180;9.230;2023-02-19T07:44:06;3.60;;;2.80;;
4450;SDS011;2238;50.180;9.230;2023-02-19T07:47:06;2.63;;;2.43;;
4450;SDS011;2238;50.180;9.230;2023-02-19T07:50:07;2.87;;;2.00;;
4450;SDS011;2238;50.180;9.230;2023-02-19T07:53:07;2.63;;;2.13;;
4450;SDS011;2238;50.180;9.230;2023-02-19T07:56:09;2.20;;;2.10;;
4450;SDS011;2238;50.180;9.230;2023-02-19T07:59:10;2.93;;;2.67;;
4450;SDS011;2238;50.180;9.230;2023-02-19T08:02:14;3.10;;;2.80;;
4450;SDS011;2238;50.180;9.230;2023-02-19T08:05:38;2.50;;;2.30;;
4450;SDS011;2238;50.180;9.230;2023-02-19T08:08:40;3.53;;;2.60;;
4450;SDS011;2238;50.180;9.230;2023-02-19T08:11:40;2.70;;;2.50;;
4450;SDS011;2238;50.180;9.230;2023-02-19T08:14:59;3.20;;;2.80;;
4450;SDS011;2238;50.180;9.230;2023-02-19T08:18:00;4.60;;;2.73;;
4450;SDS011;2238;50.180;9.230;2023-02-19T08:21:00;3.00;;;2.70;;
4450;SDS011;2238;50.180;9.230;2023-02-19T08:24:01;3.17;;;2.97;;
4450;SDS011;2238;50.180;9.230;2023-02-19T08:27:02;2.80;;;2.60;;
4450;SDS011;2238;50.180;9.230;2023-02-19T08:30:02;2.93;;;2.70;;
4450;SDS011;2238;50.180;9.230;2023-02-19T08:33:04;4.10;;;3.17;;
4450;SDS011;2238;50.180;9.230;2023-02-19T08:36:07;4.60;;;3.17;;
4450;SDS011;2238;50.180;9.230;2023-02-19T08:39:08;4.10;;;3.57;;
4450;SDS011;2238;50.180;9.230;2023-02-19T08:42:09;3.87;;;3.30;;
4450;SDS011;2238;50.180;9.230;2023-02-19T08:45:09;5.20;;;3.63;;
4450;SDS011;2238;50.180;9.230;2023-02-19T08:48:10;3.27;;;2.97;;
4450;SDS011;2238;50.180;9.230;2023-02-19T08:51:11;4.03;;;3.20;;
4450;SDS011;2238;50.180;9.230;2023-02-19T08:54:11;6.90;;;3.10;;
4450;SDS011;2238;50.180;9.230;2023-02-19T08:57:12;4.20;;;3.40;;
4450;SDS011;2238;50.180;9.230;2023-02-19T09:00:13;4.10;;;3.40;;
4450;SDS011;2238;50.180;9.230;2023-02-19T09:03:13;3.30;;;3.00;;
4450;SDS011;2238;50.180;9.230;2023-02-19T09:06:15;3.87;;;3.53;;
4450;SDS011;2238;50.180;9.230;2023-02-19T09:09:18;2.80;;;2.43;;
4450;SDS011;2238;50.180;9.230;2023-02-19T09:12:18;3.70;;;2.90;;
4450;SDS011;2238;50.180;9.230;2023-02-19T09:15:19;3.70;;;3.00;;
4450;SDS011;2238;50.180;9.230;2023-02-19T09:18:20;4.47;;;3.30;;
4450;SDS011;2238;50.180;9.230;2023-02-19T09:21:20;6.07;;;4.10;;
4450;SDS011;2238;50.180;9.230;2023-02-19T09:24:21;4.93;;;3.50;;
4450;SDS011;2238;50.180;9.230;2023-02-19T09:27:22;4.10;;;3.57;;
4450;SDS011;2238;50.180;9.230;2023-02-19T09:30:23;6.90;;;4.00;;
4450;SDS011;2238;50.180;9.230;2023-02-19T09:33:23;7.50;;;4.20;;
4450;SDS011;2238;50.180;9.230;2023-02-19T09:36:24;4.43;;;3.57;;
4450;SDS011;2238;50.180;9.230;2023-02-19T09:39:25;7.10;;;4.20;;
4450;SDS011;2238;50.180;9.230;2023-02-19T09:42:28;5.10;;;4.10;;
4450;SDS011;2238;50.180;9.230;2023-02-19T09:45:31;5.97;;;4.93;;
4450;SDS011;2238;50.180;9.230;2023-02-19T09:48:34;8.63;;;7.33;;
4450;SDS011;2238;50.180;9.230;2023-02-19T09:51:35;10.17;;;6.80;;
4450;SDS011;2238;50.180;9.230;2023-02-19T09:54:38;5.40;;;4.30;;
4450;SDS011;2238;50.180;9.230;2023-02-19T09:57:40;4.40;;;4.00;;
4450;SDS011;2238;50.180;9.230;2023-02-19T10:00:43;5.97;;;5.37;;
4450;SDS011;2238;50.180;9.230;2023-02-19T10:03:47;8.30;;;5.20;;
4450;SDS011;2238;50.180;9.230;2023-02-19T10:06:48;9.43;;;4.50;;
4450;SDS011;2238;50.180;9.230;2023-02-19T10:09:57;6.43;;;5.10;;
4450;SDS011;2238;50.180;9.230;2023-02-19T10:13:19;8.00;;;4.60;;
4450;SDS011;2238;50.180;9.230;2023-02-19T10:16:28;6.50;;;4.33;;
4450;SDS011;2238;50.180;9.230;2023-02-19T10:19:29;5.17;;;4.33;;
4450;SDS011;2238;50.180;9.230;2023-02-19T10:22:31;10.00;;;5.07;;
4450;SDS011;2238;50.180;9.230;2023-02-19T10:25:33;8.43;;;5.20;;
4450;SDS011;2238;50.180;9.230;2023-02-19T10:28:34;5.90;;;4.50;;
4450;SDS011;2238;50.180;9.230;2023-02-19T10:31:35;5.20;;;4.40;;
4450;SDS011;2238;50.180;9.230;2023-02-19T10:34:36;4.60;;;4.20;;
4450;SDS011;2238;50.180;9.230;2023-02-19T10:37:44;5.30;;;3.90;;
4450;SDS011;2238;50.180;9.230;2023-02-19T10:40:47;7.93;;;3.50;;
4450;SDS011;2238;50.180;9.230;2023-02-19T10:44:06;9.53;;;4.57;;
4450;SDS011;2238;50.180;9.230;2023-02-19T10:47:21;4.63;;;3.43;;
4450;SDS011;2238;50.180;9.230;2023-02-19T10:50:25;9.50;;;4.70;;
4450;SDS011;2238;50.180;9.230;2023-02-19T10:53:46;5.33;;;4.33;;
4450;SDS011;2238;50.180;9.230;2023-02-19T10:56:48;5.63;;;4.63;;
4450;SDS011;2238;50.180;9.230;2023-02-19T10:59:50;7.00;;;4.73;;
4450;SDS011;2238;50.180;9.230;2023-02-19T11:03:19;10.57;;;4.60;;
4450;SDS011;2238;50.180;9.230;2023-02-19T11:06:24;7.50;;;4.50;;
4450;SDS011;2238;50.180;9.230;2023-02-19T11:09:27;5.40;;;4.90;;
4450;SDS011;2238;50.180;9.230;2023-02-19T11:12:38;4.47;;;4.07;;
4450;SDS011;2238;50.180;9.230;2023-02-19T11:15:39;6.60;;;4.10;;
4450;SDS011;2238;50.180;9.230;2023-02-19T11:18:40;4.43;;;4.03;;
4450;SDS011;2238;50.180;9.230;2023-02-19T11:21:41;4.37;;;3.77;;
4450;SDS011;2238;50.180;9.230;2023-02-19T11:24:46;4.40;;;4.00;;
4450;SDS011;2238;50.180;9.230;2023-02-19T11:28:06;4.00;;;3.10;;
4450;SDS011;2238;50.180;9.230;2023-02-19T11:34:29;4.03;;;3.10;;
4450;SDS011;2238;50.180;9.230;2023-02-19T11:37:30;6.10;;;3.60;;
4450;SDS011;2238;50.180;9.230;2023-02-19T11:43:51;4.03;;;3.27;;
4450;SDS011;2238;50.180;9.230;2023-02-19T11:53:28;4.17;;;3.53;;
4450;SDS011;2238;50.180;9.230;2023-02-19T11:56:35;4.87;;;4.40;;
4450;SDS011;2238;50.180;9.230;2023-02-19T11:59:46;5.43;;;4.67;;
4450;SDS011;2238;50.180;9.230;2023-02-19T12:03:03;5.13;;;4.00;;
4450;SDS011;2238;50.180;9.230;2023-02-19T12:06:22;4.77;;;3.90;;
4450;SDS011;2238;50.180;9.230;2023-02-19T12:16:25;5.67;;;4.97;;
4450;SDS011;2238;50.180;9.230;2023-02-19T12:26:44;7.27;;;5.10;;
4450;SDS011;2238;50.180;9.230;2023-02-19T12:40:26;7.90;;;5.70;;
4450;SDS011;2238;50.180;9.230;2023-02-19T12:43:29;7.73;;;6.10;;
4450;SDS011;2238;50.180;9.230;2023-02-19T12:46:35;14.23;;;7.80;;
4450;SDS011;2238;50.180;9.230;2023-02-19T12:49:39;8.50;;;6.87;;
4450;SDS011;2238;50.180;9.230;2023-02-19T12:52:45;6.33;;;5.73;;
4450;SDS011;2238;50.180;9.230;2023-02-19T12:55:49;8.07;;;6.60;;
4450;SDS011;2238;50.180;9.230;2023-02-19T12:58:55;8.43;;;6.30;;
4450;SDS011;2238;50.180;9.230;2023-02-19T13:02:17;7.57;;;5.77;;
4450;SDS011;2238;50.180;9.230;2023-02-19T13:05:39;8.40;;;7.03;;
4450;SDS011;2238;50.180;9.230;2023-02-19T13:08:55;6.70;;;6.00;;
4450;SDS011;2238;50.180;9.230;2023-02-19T13:12:06;12.43;;;10.47;;
4450;SDS011;2238;50.180;9.230;2023-02-19T13:18:38;10.27;;;7.37;;
4450;SDS011;2238;50.180;9.230;2023-02-19T13:21:43;15.37;;;10.93;;
4450;SDS011;2238;50.180;9.230;2023-02-19T13:25:08;9.10;;;6.40;;
4450;SDS011;2238;50.180;9.230;2023-02-19T13:28:14;9.83;;;6.60;;
4450;SDS011;2238;50.180;9.230;2023-02-19T13:31:50;7.20;;;5.50;;
4450;SDS011;2238;50.180;9.230;2023-02-19T13:35:27;11.80;;;7.80;;
4450;SDS011;2238;50.180;9.230;2023-02-19T13:38:38;8.90;;;6.67;;
4450;SDS011;2238;50.180;9.230;2023-02-19T13:41:48;14.30;;;8.77;;
4450;SDS011;2238;50.180;9.230;2023-02-19T13:44:50;6.57;;;5.57;;
4450;SDS011;2238;50.180;9.230;2023-02-19T13:54:13;8.47;;;7.03;;
4450;SDS011;2238;50.180;9.230;2023-02-19T14:03:51;5.53;;;4.40;;
4450;SDS011;2238;50.180;9.230;2023-02-19T14:10:08;9.47;;;6.37;;
4450;SDS011;2238;50.180;9.230;2023-02-19T14:13:34;12.50;;;9.90;;
4450;SDS011;2238;50.180;9.230;2023-02-19T14:16:55;7.23;;;5.50;;
4450;SDS011;2238;50.180;9.230;2023-02-19T14:19:58;21.03;;;14.47;;
4450;SDS011;2238;50.180;9.230;2023-02-19T14:23:15;5.87;;;5.20;;
4450;SDS011;2238;50.180;9.230;2023-02-19T14:26:21;5.33;;;4.83;;
4450;SDS011;2238;50.180;9.230;2023-02-19T14:29:25;9.30;;;6.30;;
4450;SDS011;2238;50.180;9.230;2023-02-19T14:32:27;8.93;;;5.83;;
4450;SDS011;2238;50.180;9.230;2023-02-19T14:35:35;4.97;;;4.47;;
4450;SDS011;2238;50.180;9.230;2023-02-19T14:38:41;7.30;;;6.03;;
4450;SDS011;2238;50.180;9.230;2023-02-19T14:41:47;6.07;;;4.20;;
4450;SDS011;2238;50.180;9.230;2023-02-19T14:44:54;5.37;;;4.30;;
4450;SDS011;2238;50.180;9.230;2023-02-19T14:47:57;5.67;;;4.70;;
4450;SDS011;2238;50.180;9.230;2023-02-19T14:51:02;5.80;;;4.73;;
4450;SDS011;2238;50.180;9.230;2023-02-19T14:54:10;5.20;;;4.70;;
4450;SDS011;2238;50.180;9.230;2023-02-19T14:57:16;6.77;;;5.77;;
4450;SDS011;2238;50.180;9.230;2023-02-19T15:00:24;6.03;;;4.70;;
4450;SDS011;2238;50.180;9.230;2023-02-19T15:06:33;9.83;;;5.57;;
4450;SDS011;2238;50.180;9.230;2023-02-19T15:09:36;7.73;;;5.23;;
4450;SDS011;2238;50.180;9.230;2023-02-19T15:12:42;6.87;;;5.60;;
4450;SDS011;2238;50.180;9.230;2023-02-19T15:15:45;6.50;;;5.90;;
4450;SDS011;2238;50.180;9.230;2023-02-19T15:18:46;7.80;;;7.10;;
4450;SDS011;2238;50.180;9.230;2023-02-19T15:21:49;5.53;;;5.03;;
4450;SDS011;2238;50.180;9.230;2023-02-19T15:24:50;6.97;;;6.20;;
4450;SDS011;2238;50.180;9.230;2023-02-19T15:27:50;5.67;;;5.17;;
4450;SDS011;2238;50.180;9.230;2023-02-19T15:33:58;5.57;;;4.43;;
4450;SDS011;2238;50.180;9.230;2023-02-19T15:36:59;6.70;;;4.43;;
4450;SDS011;2238;50.180;9.230;2023-02-19T15:40:03;5.23;;;4.30;;
4450;SDS011;2238;50.180;9.230;2023-02-19T15:43:09;7.00;;;4.87;;
4450;SDS011;2238;50.180;9.230;2023-02-19T15:46:29;6.03;;;5.03;;
4450;SDS011;2238;50.180;9.230;2023-02-19T15:49:35;7.43;;;5.87;;
4450;SDS011;2238;50.180;9.230;2023-02-19T15:52:49;8.20;;;5.87;;
4450;SDS011;2238;50.180;9.230;2023-02-19T15:56:36;6.03;;;5.20;;
4450;SDS011;2238;50.180;9.230;2023-02-19T15:59:33;5.17;;;4.67;;
4450;SDS011;2238;50.180;9.230;2023-02-19T16:02:39;7.00;;;5.40;;
4450;SDS011;2238;50.180;9.230;2023-02-19T16:05:40;7.70;;;5.00;;
4450;SDS011;2238;50.180;9.230;2023-02-19T16:08:41;8.00;;;5.67;;
4450;SDS011;2238;50.180;9.230;2023-02-19T16:12:01;6.33;;;4.77;;
4450;SDS011;2238;50.180;9.230;2023-02-19T16:15:19;8.87;;;4.77;;
4450;SDS011;2238;50.180;9.230;2023-02-19T16:18:20;5.37;;;4.00;;
4450;SDS011;2238;50.180;9.230;2023-02-19T16:21:21;5.30;;;3.90;;
4450;SDS011;2238;50.180;9.230;2023-02-19T16:24:25;5.17;;;3.50;;
4450;SDS011;2238;50.180;9.230;2023-02-19T16:27:40;5.10;;;4.00;;
4450;SDS011;2238;50.180;9.230;2023-02-19T16:30:41;4.27;;;3.90;;
4450;SDS011;2238;50.180;9.230;2023-02-19T16:33:43;5.63;;;4.20;;
4450;SDS011;2238;50.180;9.230;2023-02-19T16:36:45;3.50;;;3.20;;
4450;SDS011;2238;50.180;9.230;2023-02-19T16:39:49;2.77;;;2.57;;
4450;SDS011;2238;50.180;9.230;2023-02-19T16:46:13;3.63;;;3.30;;
4450;SDS011;2238;50.180;9.230;2023-02-19T16:49:14;6.50;;;5.80;;
4450;SDS011;2238;50.180;9.230;2023-02-19T16:52:15;4.30;;;3.90;;
4450;SDS011;2238;50.180;9.230;2023-02-19T16:55:15;4.80;;;4.40;;
4450;SDS011;2238;50.180;9.230;2023-02-19T16:58:16;6.10;;;3.83;;
4450;SDS011;2238;50.180;9.230;2023-02-19T17:01:17;5.40;;;3.50;;
4450;SDS011;2238;50.180;9.230;2023-02-19T17:04:18;3.40;;;3.10;;
4450;SDS011;2238;50.180;9.230;2023-02-19T17:07:18;4.33;;;3.93;;
4450;SDS011;2238;50.180;9.230;2023-02-19T17:10:22;3.50;;;3.20;;
4450;SDS011;2238;50.180;9.230;2023-02-19T17:13:24;6.17;;;3.63;;
4450;SDS011;2238;50.180;9.230;2023-02-19T17:16:26;3.63;;;3.20;;
4450;SDS011;2238;50.180;9.230;2023-02-19T17:19:30;4.20;;;3.80;;
4450;SDS011;2238;50.180;9.230;2023-02-19T17:22:31;4.30;;;3.37;;
4450;SDS011;2238;50.180;9.230;2023-02-19T17:25:31;3.83;;;3.37;;
4450;SDS011;2238;50.180;9.230;2023-02-19T17:28:32;6.70;;;3.00;;
4450;SDS011;2238;50.180;9.230;2023-02-19T17:31:32;4.00;;;3.07;;
4450;SDS011;2238;50.180;9.230;2023-02-19T17:34:33;2.87;;;2.67;;
4450;SDS011;2238;50.180;9.230;2023-02-19T17:37:33;3.13;;;2.83;;
4450;SDS011;2238;50.180;9.230;2023-02-19T17:40:34;3.43;;;3.13;;
4450;SDS011;2238;50.180;9.230;2023-02-19T17:43:36;3.53;;;2.90;;
4450;SDS011;2238;50.180;9.230;2023-02-19T17:46:36;3.10;;;2.80;;
4450;SDS011;2238;50.180;9.230;2023-02-19T17:49:37;3.17;;;2.87;;
4450;SDS011;2238;50.180;9.230;2023-02-19T17:52:38;4.43;;;4.03;;
4450;SDS011;2238;50.180;9.230;2023-02-19T17:55:39;4.17;;;3.50;;
4450;SDS011;2238;50.180;9.230;2023-02-19T17:58:39;3.30;;;3.00;;
4450;SDS011;2238;50.180;9.230;2023-02-19T18:01:40;3.70;;;2.90;;
4450;SDS011;2238;50.180;9.230;2023-02-19T18:04:40;3.90;;;3.50;;
4450;SDS011;2238;50.180;9.230;2023-02-19T18:07:41;3.07;;;2.87;;
4450;SDS011;2238;50.180;9.230;2023-02-19T18:10:42;3.87;;;3.57;;
4450;SDS011;2238;50.180;9.230;2023-02-19T18:13:42;3.70;;;3.40;;
4450;SDS011;2238;50.180;9.230;2023-02-19T18:16:46;4.07;;;3.67;;
4450;SDS011;2238;50.180;9.230;2023-02-19T18:19:47;3.63;;;3.33;;
4450;SDS011;2238;50.180;9.230;2023-02-19T18:22:49;4.80;;;4.13;;
4450;SDS011;2238;50.180;9.230;2023-02-19T18:25:50;4.40;;;3.60;;
4450;SDS011;2238;50.180;9.230;2023-02-19T18:28:50;5.23;;;4.33;;
4450;SDS011;2238;50.180;9.230;2023-02-19T18:31:51;5.80;;;5.30;;
4450;SDS011;2238;50.180;9.230;2023-02-19T18:34:53;6.90;;;6.13;;
4450;SDS011;2238;50.180;9.230;2023-02-19T18:37:56;5.33;;;4.83;;
4450;SDS011;2238;50.180;9.230;2023-02-19T18:40:56;5.67;;;5.10;;
4450;SDS011;2238;50.180;9.230;2023-02-19T18:43:57;4.93;;;4.30;;
4450;SDS011;2238;50.180;9.230;2023-02-19T18:46:58;5.53;;;3.80;;
4450;SDS011;2238;50.180;9.230;2023-02-19T18:49:59;7.13;;;4.20;;
4450;SDS011;2238;50.180;9.230;2023-02-19T18:52:59;5.17;;;4.03;;
4450;SDS011;2238;50.180;9.230;2023-02-19T18:56:00;4.40;;;4.00;;
4450;SDS011;2238;50.180;9.230;2023-02-19T18:59:04;4.23;;;3.80;;
4450;SDS011;2238;50.180;9.230;2023-02-19T19:02:05;5.73;;;4.30;;
4450;SDS011;2238;50.180;9.230;2023-02-19T19:05:06;4.63;;;4.13;;
4450;SDS011;2238;50.180;9.230;2023-02-19T19:08:07;4.20;;;3.80;;
4450;SDS011;2238;50.180;9.230;2023-02-19T19:11:07;4.50;;;3.70;;
4450;SDS011;2238;50.180;9.230;2023-02-19T19:14:08;7.40;;;5.00;;
4450;SDS011;2238;50.180;9.230;2023-02-19T19:17:09;4.43;;;4.03;;
4450;SDS011;2238;50.180;9.230;2023-02-19T19:20:10;6.37;;;4.50;;
4450;SDS011;2238;50.180;9.230;2023-02-19T19:23:11;5.47;;;4.40;;
4450;SDS011;2238;50.180;9.230;2023-02-19T19:26:12;6.10;;;5.13;;
4450;SDS011;2238;50.180;9.230;2023-02-19T19:29:14;3.83;;;3.47;;
4450;SDS011;2238;50.180;9.230;2023-02-19T19:32:16;4.90;;;4.17;;
4450;SDS011;2238;50.180;9.230;2023-02-19T19:35:17;4.70;;;4.20;;
4450;SDS011;2238;50.180;9.230;2023-02-19T19:38:18;5.50;;;4.80;;
4450;SDS011;2238;50.180;9.230;2023-02-19T19:41:19;6.53;;;5.90;;
4450;SDS011;2238;50.180;9.230;2023-02-19T19:44:20;5.37;;;4.63;;
4450;SDS011;2238;50.180;9.230;2023-02-19T19:47:21;6.10;;;5.60;;
4450;SDS011;2238;50.180;9.230;2023-02-19T19:50:21;5.30;;;4.80;;
4450;SDS011;2238;50.180;9.230;2023-02-19T19:53:22;6.10;;;5.50;;
4450;SDS011;2238;50.180;9.230;2023-02-19T19:56:23;5.33;;;4.83;;
4450;SDS011;2238;50.180;9.230;2023-02-19T19:59:24;11.37;;;10.27;;
4450;SDS011;2238;50.180;9.230;2023-02-19T20:02:24;8.43;;;6.80;;
4450;SDS011;2238;50.180;9.230;2023-02-19T20:05:25;7.53;;;5.93;;
4450;SDS011;2238;50.180;9.230;2023-02-19T20:08:26;6.03;;;5.43;;
4450;SDS011;2238;50.180;9.230;2023-02-19T20:11:26;7.53;;;6.27;;
4450;SDS011;2238;50.180;9.230;2023-02-19T20:14:27;7.00;;;6.10;;
4450;SDS011;2238;50.180;9.230;2023-02-19T20:17:27;7.60;;;6.90;;
4450;SDS011;2238;50.180;9.230;2023-02-19T20:20:28;9.83;;;5.17;;
4450;SDS011;2238;50.180;9.230;2023-02-19T20:23:29;6.00;;;5.20;;
4450;SDS011;2238;50.180;9.230;2023-02-19T20:26:30;8.53;;;5.90;;